Time;durP1;ratioP1;P1;durP2;ratioP2;P2;SDS_P1;SDS_P2;PMS_P1;PMS_P2;Temp;Humidity;BMP_temperature;BMP_pressure;BME280_temperature;BME280_humidity;BME280_pressure;Samples;Min_cycle;Max_cycle;Signal;HPM_P1;HPM_P2
2022/09/09 00:00:30;;;;;;;3.40;2.17;;;;;;;13.71;100.00;100696.53;5109929;28;20111;-76
2022/09/09 00:03:14;;;;;;;5.22;2.28;;;;;;;13.73;100.00;100695.44;5097893;28;20051;-76
2022/09/09 00:06:11;;;;;;;3.55;1.98;;;;;;;13.70;100.00;100693.06;5090640;28;20028;-77
2022/09/09 00:09:21;;;;;;;3.80;1.65;;;;;;;13.71;100.00;100688.59;5088807;28;20034;-77
2022/09/09 00:12:11;;;;;;;3.70;1.90;;;;;;;13.70;100.00;100690.41;5081338;28;20040;-77
2022/09/09 00:14:50;;;;;;;3.30;1.83;;;;;;;13.63;100.00;100689.28;5107807;28;20077;-77
2022/09/09 00:17:33;;;;;;;2.58;1.75;;;;;;;13.62;100.00;100687.63;5108681;28;20432;-77
2022/09/09 00:20:12;;;;;;;3.25;1.75;;;;;;;13.62;100.00;100687.63;5110993;28;20023;-77
2022/09/09 00:22:45;;;;;;;3.70;1.70;;;;;;;13.59;100.00;100687.88;5106135;28;20027;-77
2022/09/09 00:25:34;;;;;;;7.63;1.88;;;;;;;13.60;100.00;100686.91;5110451;27;20501;-77
2022/09/09 00:28:00;;;;;;;3.45;1.60;;;;;;;13.58;100.00;100680.91;5095007;28;20044;-76
2022/09/09 00:30:34;;;;;;;2.67;1.60;;;;;;;13.55;100.00;100688.28;5090621;28;20034;-77
2022/09/09 00:33:12;;;;;;;4.50;1.65;;;;;;;13.53;100.00;100687.59;5091562;28;20045;-77
2022/09/09 00:35:58;;;;;;;2.83;1.85;;;;;;;13.59;100.00;100679.94;5091324;28;20579;-76
2022/09/09 00:38:32;;;;;;;3.13;1.52;;;;;;;13.55;100.00;100680.34;5093620;28;20031;-77
2022/09/09 00:41:25;;;;;;;4.28;1.50;;;;;;;13.57;100.00;100667.84;5089965;28;20404;-77
2022/09/09 00:44:03;;;;;;;2.15;1.50;;;;;;;13.53;100.00;100661.16;5089653;28;20048;-77
2022/09/09 00:46:50;;;;;;;3.35;1.40;;;;;;;13.52;100.00;100662.13;5089331;28;20097;-77
2022/09/09 00:49:29;;;;;;;3.08;1.50;;;;;;;13.49;100.00;100661.44;5091021;28;20812;-77
2022/09/09 00:52:31;;;;;;;3.42;1.45;;;;;;;13.53;100.00;100667.28;5089467;28;20024;-77
2022/09/09 00:55:15;;;;;;;6.72;1.90;;;;;;;13.51;100.00;100660.44;5091141;28;20031;-77
2022/09/09 00:57:41;;;;;;;3.38;1.63;;;;;;;13.49;100.00;100661.44;5089647;28;20020;-77
2022/09/09 01:00:24;;;;;;;2.30;1.50;;;;;;;13.49;100.00;100671.16;5089688;28;20023;-77
2022/09/09 01:03:28;;;;;;;4.00;1.55;;;;;;;13.44;100.00;100660.16;5102200;28;20563;-77
2022/09/09 01:06:11;;;;;;;5.05;1.80;;;;;;;13.42;100.00;100659.47;5006533;28;20108;-77
2022/09/09 01:09:16;;;;;;;5.95;1.60;;;;;;;13.45;100.00;100656.56;5026218;28;20494;-77
2022/09/09 01:12:03;;;;;;;4.78;1.75;;;;;;;13.38;100.00;100663.38;5076069;28;20494;-77
2022/09/09 01:14:34;;;;;;;3.08;1.40;;;;;;;13.38;100.00;100658.91;5109895;28;20028;-77
2022/09/09 01:17:14;;;;;;;2.70;1.50;;;;;;;13.41;100.00;100660.44;5108429;28;20027;-77
2022/09/09 01:19:49;;;;;;;3.35;1.50;;;;;;;13.36;100.00;100658.22;5109947;28;20030;-77
2022/09/09 01:22:29;;;;;;;4.60;1.80;;;;;;;13.38;100.00;100650.16;5107870;28;20015;-77
2022/09/09 01:25:49;;;;;;;5.45;2.00;;;;;;;13.38;100.00;100652.78;5109013;28;20642;-77
2022/09/09 01:28:23;;;;;;;6.88;1.92;;;;;;;13.35;100.00;100647.78;5049203;28;20056;-77
2022/09/09 01:30:49;;;;;;;4.90;1.70;;;;;;;13.33;100.00;100644.44;5103172;28;20035;-77
2022/09/09 01:33:17;;;;;;;4.03;1.90;;;;;;;13.31;100.00;100641.09;5108025;28;20379;-80
2022/09/09 01:35:50;;;;;;;2.92;1.73;;;;;;;13.31;100.00;100641.09;5109801;28;20020;-77
2022/09/09 01:38:17;;;;;;;5.68;2.00;;;;;;;13.30;100.00;100644.72;5103202;28;20112;-76
2022/09/09 01:40:43;;;;;;;6.55;2.42;;;;;;;13.31;100.00;100641.09;5109226;28;20026;-76
2022/09/09 01:43:09;;;;;;;4.55;2.20;;;;;;;13.32;100.00;100637.47;5107782;28;20047;-76
2022/09/09 01:45:34;;;;;;;5.85;2.40;;;;;;;13.28;100.00;100636.09;5107818;28;20028;-76
2022/09/09 01:48:00;;;;;;;4.85;2.40;;;;;;;13.28;100.00;100636.09;5108607;28;20136;-76
2022/09/09 01:50:26;;;;;;;5.10;2.40;;;;;;;13.25;100.00;100626.63;5110587;28;20629;-76
2022/09/09 01:52:59;;;;;;;3.90;2.30;;;;;;;13.28;100.00;100636.91;5109732;28;20028;-76
2022/09/09 01:56:06;;;;;;;6.75;2.28;;;;;;;13.29;100.00;100627.19;5102914;28;20425;-76
2022/09/09 01:58:56;;;;;;;7.95;3.38;;;;;;;13.26;100.00;100632.75;5109213;28;20104;-76
2022/09/09 02:01:52;;;;;;;3.95;2.40;;;;;;;13.28;100.00;100625.53;5108029;28;20035;-80
2022/09/09 02:04:41;;;;;;;12.25;2.42;;;;;;;13.26;100.00;100624.81;5110063;28;20106;-76
2022/09/09 02:07:28;;;;;;;5.55;2.70;;;;;;;13.25;100.00;100615.22;5110174;28;20088;-76
2022/09/09 02:10:11;;;;;;;7.60;2.50;;;;;;;13.23;100.00;100617.16;5108236;28;20019;-78
2022/09/09 02:12:42;;;;;;;8.30;2.78;;;;;;;13.21;100.00;100619.09;5092420;28;20031;-80
2022/09/09 02:15:17;;;;;;;5.40;2.55;;;;;;;13.20;100.00;100612.97;5086751;28;20034;-79
2022/09/09 02:17:42;;;;;;;5.72;3.35;;;;;;;13.19;100.00;100616.56;5088687;28;20103;-79
2022/09/09 02:20:14;;;;;;;8.45;3.10;;;;;;;13.21;100.00;100627.00;5088246;28;20103;-75
2022/09/09 02:22:43;;;;;;;6.25;3.40;;;;;;;13.18;100.00;100618.38;5100861;28;20390;-75
2022/09/09 02:25:12;;;;;;;6.88;3.25;;;;;;;13.17;100.00;100623.81;5107635;28;20027;-75
2022/09/09 02:27:40;;;;;;;11.02;3.85;;;;;;;13.18;100.00;100614.91;5101208;28;20032;-75
2022/09/09 02:30:07;;;;;;;7.93;3.75;;;;;;;13.15;100.00;100618.63;5089492;28;20043;-75
2022/09/09 02:32:35;;;;;;;7.75;3.72;;;;;;;13.13;100.00;100617.09;5088133;28;20110;-76
2022/09/09 02:35:14;;;;;;;7.68;3.58;;;;;;;13.13;100.00;100610.00;5100950;28;20034;-76
2022/09/09 02:37:41;;;;;;;11.75;3.53;;;;;;;13.13;100.00;100612.66;5086998;28;20123;-76
2022/09/09 02:40:10;;;;;;;7.78;3.90;;;;;;;13.15;100.00;100605.41;5087346;28;20387;-76
2022/09/09 02:42:44;;;;;;;7.68;3.30;;;;;;;13.15;100.00;100600.13;5087651;28;20532;-76
2022/09/09 02:45:15;;;;;;;7.82;3.80;;;;;;;13.13;100.00;100604.72;5096659;28;20062;-76
2022/09/09 02:47:58;;;;;;;6.95;3.70;;;;;;;13.16;100.00;100600.97;5109963;28;20027;-76
2022/09/09 02:50:36;;;;;;;7.63;3.63;;;;;;;13.14;100.00;100603.75;5108636;28;20027;-76
2022/09/09 02:53:23;;;;;;;12.93;3.85;;;;;;;13.15;100.00;100609.88;5110571;28;20040;-79
2022/09/09 02:55:57;;;;;;;9.85;3.65;;;;;;;13.12;100.00;100615.41;5108477;28;20015;-79
2022/09/09 02:58:24;;;;;;;5.10;3.28;;;;;;;13.11;100.00;100614.59;5108452;28;20019;-80
2022/09/09 03:00:51;;;;;;;10.95;3.83;;;;;;;13.10;100.00;100615.56;5110008;28;20043;-80
2022/09/09 03:03:19;;;;;;;10.07;3.92;;;;;;;13.10;100.00;100615.56;5109738;28;20026;-81
2022/09/09 03:05:45;;;;;;;7.88;3.35;;;;;;;13.10;100.00;100615.56;5109323;28;20039;-80
2022/09/09 03:08:11;;;;;;;8.65;3.55;;;;;;;13.11;100.00;100613.75;5109934;28;20068;-79
2022/09/09 03:10:36;;;;;;;10.80;3.63;;;;;;;13.11;100.00;100611.94;5111595;28;20114;-79
2022/09/09 03:13:04;;;;;;;5.35;3.50;;;;;;;13.10;100.00;100612.91;5112874;28;20572;-80
2022/09/09 03:15:30;;;;;;;9.02;3.42;;;;;;;13.09;100.00;100616.53;5114027;28;20054;-79
2022/09/09 03:17:59;;;;;;;8.68;3.15;;;;;;;13.11;100.00;100625.16;5113514;28;20018;-79
2022/09/09 03:20:26;;;;;;;14.00;3.28;;;;;;;13.11;100.00;100626.97;5112781;28;20028;-80
2022/09/09 03:22:53;;;;;;;8.00;3.42;;;;;;;13.13;100.00;100628.50;5109574;27;20102;-80
2022/09/09 03:25:18;;;;;;;7.88;3.40;;;;;;;13.12;100.00;100629.47;5113132;28;20120;-80
2022/09/09 03:27:44;;;;;;;6.88;3.30;;;;;;;13.15;100.00;100626.56;5113085;28;20546;-79
2022/09/09 03:30:13;;;;;;;7.05;3.15;;;;;;;13.15;100.00;100631.84;5114530;28;20076;-80
2022/09/09 03:32:40;;;;;;;8.23;3.20;;;;;;;13.14;100.00;100627.53;5114562;28;20026;-79
2022/09/09 03:35:05;;;;;;;7.85;2.92;;;;;;;13.17;100.00;100629.09;5113758;28;20382;-79
2022/09/09 03:37:31;;;;;;;8.77;2.85;;;;;;;13.15;100.00;100623.91;5113053;28;20020;-79
2022/09/09 03:39:57;;;;;;;6.68;2.83;;;;;;;13.17;100.00;100627.28;5113615;28;20094;-80
2022/09/09 03:42:22;;;;;;;9.48;2.97;;;;;;;13.17;100.00;100619.34;5111521;28;20155;-80
2022/09/09 03:44:49;;;;;;;6.60;2.60;;;;;;;13.21;100.00;100624.38;5110420;28;20525;-80
2022/09/09 03:47:17;;;;;;;10.05;3.08;;;;;;;13.18;100.00;100614.91;5113440;28;20351;-80
2022/09/09 03:49:42;;;;;;;6.07;2.65;;;;;;;13.16;100.00;100615.00;5114947;28;20102;-81
2022/09/09 03:52:08;;;;;;;9.05;2.92;;;;;;;13.17;100.00;100621.16;5115320;28;20452;-80
2022/09/09 03:54:34;;;;;;;9.40;3.13;;;;;;;13.17;100.00;100619.34;5113490;28;20023;-80
2022/09/09 03:57:00;;;;;;;6.55;2.83;;;;;;;13.19;100.00;100616.56;5114818;28;20102;-81
2022/09/09 03:59:26;;;;;;;10.15;2.70;;;;;;;13.18;100.00;100614.91;5106347;27;20102;-80
2022/09/09 04:01:51;;;;;;;5.35;2.40;;;;;;;13.18;100.00;100615.75;5113442;28;20107;-80
2022/09/09 04:04:16;;;;;;;7.53;2.58;;;;;;;13.17;100.00;100611.44;5113524;28;20559;-80
2022/09/09 04:06:42;;;;;;;13.10;3.22;;;;;;;13.21;100.00;100613.78;5114037;28;20110;-79
2022/09/09 04:09:07;;;;;;;8.50;3.00;;;;;;;13.19;100.00;100611.28;5131470;28;20023;-79
2022/09/09 04:11:33;;;;;;;8.80;3.08;;;;;;;13.18;100.00;100605.19;5134283;28;20046;-76
2022/09/09 04:13:58;;;;;;;9.88;2.88;;;;;;;13.18;100.00;100607.81;5133566;28;20054;-78
2022/09/09 04:16:24;;;;;;;7.40;2.53;;;;;;;13.21;100.00;100605.88;5128848;28;20090;-76
2022/09/09 04:18:49;;;;;;;7.32;2.55;;;;;;;13.21;100.00;100616.44;5128779;28;20028;-76
2022/09/09 04:21:16;;;;;;;12.32;3.05;;;;;;;13.22;100.00;100612.84;5133766;28;20365;-76
2022/09/09 04:23:41;;;;;;;9.35;3.13;;;;;;;13.25;100.00;100612.59;5136236;28;20028;-76
2022/09/09 04:26:07;;;;;;;11.25;3.03;;;;;;;13.26;100.00;100603.69;5135158;28;20023;-76
2022/09/09 04:28:34;;;;;;;8.10;2.90;;;;;;;13.27;100.00;100605.34;5135821;28;20061;-75
2022/09/09 04:31:09;;;;;;;9.32;2.90;;;;;;;13.27;100.00;100602.72;5135636;28;20034;-76
2022/09/09 04:33:35;;;;;;;7.13;2.92;;;;;;;13.29;100.00;100595.47;5117213;28;20046;-76
2022/09/09 04:36:00;;;;;;;8.18;2.97;;;;;;;13.28;100.00;100593.81;5114038;28;20012;-76
2022/09/09 04:38:26;;;;;;;9.27;2.88;;;;;;;13.31;100.00;100590.91;5111396;28;20027;-77
2022/09/09 04:40:52;;;;;;;9.93;3.03;;;;;;;13.32;100.00;100597.84;5112265;28;20032;-77
2022/09/09 04:43:22;;;;;;;9.60;3.10;;;;;;;13.32;100.00;100600.50;5110892;28;20038;-76
2022/09/09 04:45:49;;;;;;;8.77;2.95;;;;;;;13.32;100.00;100600.50;5110817;28;20046;-75
2022/09/09 04:48:15;;;;;;;9.35;3.00;;;;;;;13.33;100.00;100596.88;5111171;28;20035;-76
2022/09/09 04:50:40;;;;;;;13.20;2.95;;;;;;;13.32;100.00;100590.75;5128897;28;20024;-76
2022/09/09 04:53:06;;;;;;;9.65;3.20;;;;;;;13.32;100.00;100590.75;5122051;28;20008;-75
2022/09/09 04:55:33;;;;;;;6.90;3.03;;;;;;;13.34;100.00;100586.16;5130831;28;20023;-76
2022/09/09 04:58:06;;;;;;;8.00;3.13;;;;;;;13.34;100.00;100588.81;5129070;28;20020;-76
2022/09/09 05:00:33;;;;;;;11.05;3.08;;;;;;;13.38;100.00;100584.09;5112642;28;20415;-76
2022/09/09 05:03:03;;;;;;;9.85;3.30;;;;;;;13.42;100.00;100588.13;5110834;28;20069;-76
2022/09/09 05:05:28;;;;;;;10.02;2.90;;;;;;;13.41;100.00;100589.09;5110263;28;20106;-79
2022/09/09 05:07:53;;;;;;;9.05;2.88;;;;;;;13.41;100.00;100584.63;5111114;28;20102;-76
2022/09/09 05:10:19;;;;;;;15.27;3.40;;;;;;;13.44;100.00;100592.28;5110356;28;20024;-76
2022/09/09 05:12:52;;;;;;;10.50;2.42;;;;;;;13.47;100.00;100585.88;5109960;28;20023;-76
2022/09/09 05:15:18;;;;;;;7.88;3.05;;;;;;;13.48;100.00;100585.75;5110785;28;20435;-76
2022/09/09 05:17:43;;;;;;;6.07;2.72;;;;;;;13.48;100.00;100579.63;5110614;28;20054;-76
2022/09/09 05:20:12;;;;;;;7.65;2.78;;;;;;;13.49;100.00;100579.50;5108468;28;20064;-77
2022/09/09 05:22:37;;;;;;;12.02;3.00;;;;;;;13.51;100.00;100579.34;5102693;28;20054;-77
2022/09/09 05:25:03;;;;;;;10.68;3.00;;;;;;;13.53;100.00;100576.56;5107885;28;20058;-77
2022/09/09 05:27:31;;;;;;;11.25;3.00;;;;;;;13.55;100.00;100575.44;5110461;27;20031;-76
2022/09/09 05:29:59;;;;;;;12.05;3.03;;;;;;;13.58;100.00;100577.81;5110218;28;20081;-77
2022/09/09 05:32:24;;;;;;;8.98;3.03;;;;;;;13.60;100.00;100573.22;5108428;28;20139;-77
2022/09/09 05:34:50;;;;;;;11.40;2.85;;;;;;;13.65;100.00;100571.03;5110364;28;20747;-77
2022/09/09 05:37:16;;;;;;;9.10;2.90;;;;;;;13.64;100.00;100569.34;5110676;28;20046;-77
2022/09/09 05:39:41;;;;;;;8.65;2.67;;;;;;;13.65;100.00;100581.59;5109157;28;20475;-81
2022/09/09 05:42:07;;;;;;;10.93;3.17;;;;;;;13.71;100.00;100583.69;5108955;28;20115;-80
2022/09/09 05:44:32;;;;;;;13.70;3.15;;;;;;;13.73;100.00;100587.00;5109240;28;20059;-80
2022/09/09 05:46:57;;;;;;;10.32;3.10;;;;;;;13.77;100.00;100585.75;5107088;28;20051;-77
2022/09/09 05:49:25;;;;;;;13.73;2.97;;;;;;;13.80;100.00;100585.47;5108990;28;20038;-81
2022/09/09 05:51:51;;;;;;;13.13;2.83;;;;;;;13.84;100.00;100591.31;5108195;28;20016;-80
2022/09/09 05:54:17;;;;;;;9.55;2.75;;;;;;;13.86;100.00;100596.47;5107819;28;20042;-77
2022/09/09 05:56:42;;;;;;;9.20;3.13;;;;;;;13.86;100.00;100594.66;5106138;28;20026;-77
2022/09/09 05:59:08;;;;;;;9.88;3.05;;;;;;;13.90;100.00;100584.63;5107067;28;20356;-77
2022/09/09 06:01:35;;;;;;;8.50;2.83;;;;;;;13.92;100.00;100593.25;5108011;28;20489;-77
2022/09/09 06:04:01;;;;;;;13.43;3.38;;;;;;;13.97;100.00;100596.31;5102634;28;20407;-77
2022/09/09 06:06:30;;;;;;;11.55;3.30;;;;;;;14.03;100.00;100593.13;5107511;28;20023;-77
2022/09/09 06:08:57;;;;;;;15.23;3.22;;;;;;;14.08;100.00;100593.53;5106263;28;20032;-77
2022/09/09 06:11:30;;;;;;;11.35;3.40;;;;;;;14.08;100.00;100583.78;5108799;28;20011;-76
2022/09/09 06:13:59;;;;;;;11.93;3.35;;;;;;;14.13;100.00;100588.63;5105761;28;20031;-77
2022/09/09 06:16:26;;;;;;;11.02;3.42;;;;;;;14.17;100.00;100592.66;5106060;28;20498;-77
2022/09/09 06:18:53;;;;;;;12.75;3.10;;;;;;;14.23;100.00;100592.09;5101579;28;20019;-77
2022/09/09 06:21:35;;;;;;;10.07;3.10;;;;;;;14.25;100.00;100590.13;5105804;28;20134;-77
2022/09/09 06:24:01;;;;;;;13.05;3.08;;;;;;;14.24;100.00;100593.75;5109189;28;20391;-77
2022/09/09 06:26:30;;;;;;;17.38;3.40;;;;;;;14.28;100.00;100597.78;5106452;27;20019;-75
2022/09/09 06:28:57;;;;;;;11.95;3.00;;;;;;;14.29;100.00;100591.50;5107505;28;20032;-75
2022/09/09 06:31:25;;;;;;;14.55;2.85;;;;;;;14.28;100.00;100602.22;5106420;28;20048;-76
2022/09/09 06:33:52;;;;;;;13.00;3.05;;;;;;;14.28;100.00;100600.44;5109511;28;20537;-75
2022/09/09 06:36:20;;;;;;;13.55;3.13;;;;;;;14.31;100.00;100597.50;5106686;28;20020;-75
2022/09/09 06:38:46;;;;;;;11.57;3.10;;;;;;;14.34;100.00;100593.72;5107273;28;20031;-76
2022/09/09 06:41:14;;;;;;;11.27;3.35;;;;;;;14.36;100.00;100597.88;5109440;28;20391;-79
2022/09/09 06:43:40;;;;;;;14.45;3.35;;;;;;;14.39;100.00;100592.31;5089540;28;20039;-76
2022/09/09 06:46:10;;;;;;;18.77;4.38;;;;;;;14.43;100.00;100592.06;5109059;28;20024;-76
2022/09/09 06:48:36;;;;;;;11.55;3.10;;;;;;;14.51;100.00;100584.25;5108753;28;20494;-77
2022/09/09 06:51:01;;;;;;;15.68;3.35;;;;;;;14.57;100.00;100587.13;5107759;28;20019;-77
2022/09/09 06:53:27;;;;;;;9.52;3.00;;;;;;;14.62;100.00;100587.53;5107641;28;20428;-79
2022/09/09 06:55:52;;;;;;;13.10;3.10;;;;;;;14.72;100.00;100590.13;5108936;28;20038;-79
2022/09/09 06:58:21;;;;;;;10.82;2.85;;;;;;;14.73;100.00;100589.97;5107506;28;20058;-79
2022/09/09 07:00:47;;;;;;;10.38;2.72;;;;;;;14.82;100.00;100588.28;5107320;28;20496;-78
2022/09/09 07:03:13;;;;;;;11.82;3.38;;;;;;;14.95;100.00;100588.78;5107429;28;20027;-78
2022/09/09 07:05:38;;;;;;;11.43;3.30;;;;;;;15.04;100.00;100593.16;5108768;28;20024;-78
2022/09/09 07:08:04;;;;;;;11.68;2.83;;;;;;;15.15;100.00;100583.34;5108745;28;20020;-79
2022/09/09 07:10:29;;;;;;;13.48;3.00;;;;;;;15.28;100.00;100589.97;5108044;28;20110;-78
2022/09/09 07:12:54;;;;;;;17.25;3.58;;;;;;;15.38;100.00;100595.19;5108879;28;20027;-77
2022/09/09 07:15:22;;;;;;;14.05;3.13;;;;;;;15.43;100.00;100582.31;5107308;28;20050;-80
2022/09/09 07:17:48;;;;;;;9.07;2.92;;;;;;;15.52;100.00;100592.00;5106064;28;20020;-82
2022/09/09 07:20:14;;;;;;;11.25;2.92;;;;;;;15.49;100.00;100586.19;5105277;28;20467;-78
2022/09/09 07:22:40;;;;;;;9.90;2.70;;;;;;;15.56;100.00;100596.03;5103779;28;20081;-78
2022/09/09 07:25:07;;;;;;;9.65;2.70;;;;;;;15.61;100.00;100582.38;5106869;28;20036;-79
2022/09/09 07:27:32;;;;;;;14.48;3.03;;;;;;;15.62;100.00;100582.22;5106266;28;20379;-76
2022/09/09 07:29:57;;;;;;;12.85;3.30;;;;;;;15.64;100.00;100580.22;5108621;28;20049;-76
2022/09/09 07:32:23;;;;;;;13.30;2.70;;;;;;;15.62;99.81;100579.56;5108136;28;20016;-77
2022/09/09 07:34:50;;;;;;;10.52;2.92;;;;;;;15.60;99.40;100584.16;5108697;28;20084;-77
2022/09/09 07:37:15;;;;;;;11.65;3.00;;;;;;;15.63;99.66;100583.88;5108460;28;20097;-76
2022/09/09 07:39:41;;;;;;;12.07;2.80;;;;;;;15.64;98.62;100596.16;5108192;28;20028;-77
2022/09/09 07:42:09;;;;;;;12.45;2.90;;;;;;;15.63;99.71;100591.00;5107465;28;20020;-77
2022/09/09 07:44:35;;;;;;;17.17;3.45;;;;;;;15.68;99.29;100590.53;5107903;28;20070;-78
2022/09/09 07:47:02;;;;;;;11.25;2.60;;;;;;;15.70;98.37;100594.69;5094996;28;20024;-77
2022/09/09 07:49:27;;;;;;;12.80;2.90;;;;;;;15.72;98.47;100583.94;5083091;28;20073;-77
2022/09/09 07:51:53;;;;;;;10.27;2.70;;;;;;;15.76;98.37;100587.94;5107084;28;20027;-77
2022/09/09 07:54:23;;;;;;;12.80;2.60;;;;;;;15.81;97.26;100575.06;5103547;28;20115;-77
2022/09/09 07:56:49;;;;;;;10.23;2.53;;;;;;;15.97;98.49;100580.47;5108416;28;20092;-77
2022/09/09 07:59:16;;;;;;;9.55;2.42;;;;;;;16.09;96.82;100584.56;5111101;28;20013;-77
2022/09/09 08:01:53;;;;;;;11.90;2.80;;;;;;;16.14;95.29;100576.13;5109696;28;20425;-80
2022/09/09 08:04:19;;;;;;;10.70;2.67;;;;;;;16.21;94.71;100582.47;5109201;27;20697;-81
2022/09/09 08:06:48;;;;;;;10.40;2.33;;;;;;;16.22;94.80;100584.13;5109503;28;20058;-77
2022/09/09 08:09:14;;;;;;;12.30;2.58;;;;;;;16.23;94.57;100589.28;5109652;28;20050;-81
2022/09/09 08:11:41;;;;;;;11.23;2.83;;;;;;;16.35;94.10;100578.41;5109045;28;20069;-81
2022/09/09 08:14:09;;;;;;;7.65;2.22;;;;;;;16.32;91.34;100576.91;5110602;28;20028;-81
2022/09/09 08:16:37;;;;;;;9.20;2.33;;;;;;;16.42;92.66;100590.91;5107199;28;20035;-77
2022/09/09 08:19:03;;;;;;;8.73;2.13;;;;;;;16.44;92.38;100583.63;5110990;28;20019;-77
2022/09/09 08:21:31;;;;;;;12.30;2.97;;;;;;;16.49;91.28;100586.63;5103704;28;20028;-78
2022/09/09 08:23:58;;;;;;;7.57;2.17;;;;;;;16.61;91.39;100590.66;5111293;28;20031;-77
2022/09/09 08:26:34;;;;;;;12.52;2.40;;;;;;;16.66;90.97;100590.22;5109649;28;20023;-76
2022/09/09 08:29:01;;;;;;;7.70;2.00;;;;;;;16.74;89.70;100589.41;5110236;28;20024;-77
2022/09/09 08:31:29;;;;;;;13.57;2.97;;;;;;;16.70;87.47;100593.41;5111191;27;20046;-77
2022/09/09 08:33:56;;;;;;;9.95;2.08;;;;;;;16.65;87.63;100591.19;5111380;28;20030;-76
2022/09/09 08:36:26;;;;;;;11.30;2.55;;;;;;;16.64;88.83;100597.50;5105804;28;20077;-76
2022/09/09 08:38:54;;;;;;;8.70;2.10;;;;;;;16.61;89.96;100589.84;5098642;28;20031;-76
2022/09/09 08:41:36;;;;;;;13.05;2.45;;;;;;;16.67;90.65;100602.50;5109198;28;20096;-80
2022/09/09 08:44:02;;;;;;;8.87;2.50;;;;;;;16.55;89.61;100601.09;5091351;28;20507;-80
2022/09/09 08:46:38;;;;;;;7.88;2.42;;;;;;;16.60;90.29;100601.47;5105659;28;20039;-80
2022/09/09 08:49:20;;;;;;;11.25;2.42;;;;;;;16.63;90.53;100608.28;5110690;28;20379;-79
2022/09/09 08:51:47;;;;;;;11.32;2.38;;;;;;;16.58;87.62;100598.13;5108099;28;20122;-76
2022/09/09 08:54:13;;;;;;;10.68;2.30;;;;;;;16.68;88.96;100606.84;5109928;28;20055;-77
2022/09/09 08:56:38;;;;;;;10.93;2.40;;;;;;;16.74;88.35;100600.88;5107120;28;20450;-77
2022/09/09 08:59:05;;;;;;;8.75;2.33;;;;;;;16.87;87.79;100601.28;5091105;28;20077;-77
2022/09/09 09:02:04;;;;;;;11.70;2.40;;;;;;;16.92;88.12;100609.63;5091193;28;20050;-76
2022/09/09 09:04:41;;;;;;;11.38;2.35;;;;;;;16.91;86.60;100615.91;5090509;28;20047;-77
2022/09/09 09:07:06;;;;;;;11.88;2.42;;;;;;;16.92;85.38;100620.25;5091192;28;20020;-77
2022/09/09 09:09:53;;;;;;;12.63;2.20;;;;;;;16.88;85.62;100623.38;5098012;28;20030;-77
2022/09/09 09:12:24;;;;;;;11.35;2.55;;;;;;;16.86;84.92;100620.06;5108476;28;20035;-78
2022/09/09 09:14:50;;;;;;;8.32;2.35;;;;;;;16.86;85.17;100620.06;5090125;28;20468;-76
2022/09/09 09:17:19;;;;;;;9.23;2.25;;;;;;;16.87;84.58;100627.88;5088883;28;20035;-78
2022/09/09 09:19:46;;;;;;;11.18;2.33;;;;;;;16.84;85.66;100625.53;5091290;28;20101;-77
2022/09/09 09:22:36;;;;;;;10.20;2.38;;;;;;;16.86;87.17;100631.53;5098512;28;20054;-79
2022/09/09 09:25:13;;;;;;;9.25;2.13;;;;;;;16.80;86.99;100637.44;5108780;28;20023;-79
2022/09/09 09:28:05;;;;;;;7.82;2.55;;;;;;;16.85;87.48;100635.16;5110287;28;20031;-78
2022/09/09 09:30:42;;;;;;;7.93;2.15;;;;;;;16.88;87.00;100640.16;5108587;28;20035;-76
2022/09/09 09:33:23;;;;;;;10.50;2.13;;;;;;;16.93;87.04;100634.38;5088578;28;20020;-78
2022/09/09 09:35:50;;;;;;;10.80;2.30;;;;;;;16.94;87.15;100632.53;5088436;28;20067;-79
2022/09/09 09:38:18;;;;;;;9.18;2.28;;;;;;;17.02;86.81;100636.06;5087056;28;20035;-78
2022/09/09 09:40:50;;;;;;;10.57;2.65;;;;;;;17.00;88.98;100637.22;5097825;28;20035;-76
2022/09/09 09:43:24;;;;;;;10.88;2.33;;;;;;;16.85;89.84;100627.19;5098114;28;20509;-77
2022/09/09 09:45:49;;;;;;;12.45;2.95;;;;;;;16.75;89.01;100618.50;5103243;28;20051;-76
2022/09/09 09:48:14;;;;;;;12.32;2.47;;;;;;;16.70;90.15;100620.78;5096992;28;20868;-77
2022/09/09 09:50:51;;;;;;;9.75;2.33;;;;;;;16.76;92.74;100620.16;5098462;28;20027;-77
2022/09/09 09:53:21;;;;;;;9.32;2.25;;;;;;;16.71;91.63;100622.47;5108916;28;20055;-77
2022/09/09 09:55:53;;;;;;;12.93;2.92;;;;;;;16.71;92.90;100627.78;5109126;28;20102;-77
2022/09/09 09:58:18;;;;;;;11.93;2.63;;;;;;;16.66;91.90;100627.41;5110237;28;20019;-76
2022/09/09 10:00:52;;;;;;;12.25;2.67;;;;;;;16.51;91.68;100631.63;5109904;28;20433;-76
2022/09/09 10:03:23;;;;;;;10.93;2.83;;;;;;;16.42;94.56;100625.44;5109835;28;20040;-76
2022/09/09 10:05:49;;;;;;;12.90;2.50;;;;;;;16.40;94.38;100621.25;5107614;28;20086;-76
2022/09/09 10:08:17;;;;;;;10.38;2.30;;;;;;;16.34;94.75;100632.50;5109975;28;20468;-84
2022/09/09 10:11:01;;;;;;;9.88;2.60;;;;;;;16.33;94.68;100622.88;5110767;28;20047;-76
2022/09/09 10:13:54;;;;;;;8.93;2.40;;;;;;;16.35;97.05;100637.66;5110034;28;20088;-77
2022/09/09 10:16:40;;;;;;;15.77;2.83;;;;;;;16.31;96.17;100625.69;5108426;28;20027;-77
2022/09/09 10:19:12;;;;;;;11.70;2.85;;;;;;;16.35;97.61;100634.16;5105678;28;20498;-77
2022/09/09 10:22:02;;;;;;;10.03;2.50;;;;;;;16.36;95.60;100644.63;5108496;28;20477;-76
2022/09/09 10:25:12;;;;;;;10.55;2.80;;;;;;;16.32;95.33;100629.16;5098504;28;20030;-77
2022/09/09 10:28:08;;;;;;;10.23;2.40;;;;;;;16.18;96.77;100642.03;5108285;28;20023;-76
2022/09/09 10:30:37;;;;;;;10.77;2.60;;;;;;;16.10;96.55;100634.00;5107428;28;20026;-83
2022/09/09 10:33:21;;;;;;;8.75;2.63;;;;;;;16.10;97.72;100639.31;5108742;28;20027;-76
2022/09/09 10:36:01;;;;;;;10.15;2.80;;;;;;;16.09;98.54;100642.97;5105668;28;20030;-76
2022/09/09 10:38:36;;;;;;;9.98;2.90;;;;;;;16.07;97.19;100639.63;5106007;28;20019;-77
2022/09/09 10:41:20;;;;;;;11.02;2.85;;;;;;;16.10;98.25;100638.47;5105845;28;20033;-76
2022/09/09 10:44:05;;;;;;;8.65;2.50;;;;;;;16.14;98.62;100639.84;5104623;28;20364;-77
2022/09/09 10:47:13;;;;;;;8.80;2.88;;;;;;;16.22;98.61;100640.72;5106053;28;20031;-77
2022/09/09 10:49:47;;;;;;;7.60;2.22;;;;;;;16.29;97.72;100644.41;5106547;28;20582;-77
2022/09/09 10:52:44;;;;;;;6.90;2.03;;;;;;;16.36;97.71;100641.97;5108062;28;20029;-77
2022/09/09 10:55:20;;;;;;;8.20;2.35;;;;;;;16.42;98.08;100635.22;5098691;28;20190;-77
2022/09/09 10:57:47;;;;;;;10.30;2.50;;;;;;;16.38;97.58;100636.50;5101226;28;20038;-76
2022/09/09 11:00:42;;;;;;;6.72;2.20;;;;;;;16.44;98.30;100630.59;5105639;28;20019;-77
2022/09/09 11:03:33;;;;;;;9.00;2.88;;;;;;;16.41;98.47;100637.06;5087767;28;20028;-77
2022/09/09 11:06:19;;;;;;;12.27;2.90;;;;;;;16.39;97.69;100639.00;5089788;28;20028;-76
2022/09/09 11:08:46;;;;;;;10.23;2.70;;;;;;;16.38;97.90;100632.03;5109555;28;20028;-76
2022/09/09 11:11:42;;;;;;;7.18;2.40;;;;;;;16.41;97.24;100641.50;5108653;28;20142;-77
2022/09/09 11:14:24;;;;;;;10.50;2.47;;;;;;;16.46;99.46;100639.25;5110116;28;20031;-76
2022/09/09 11:16:55;;;;;;;6.53;2.60;;;;;;;16.45;98.02;100633.09;5108741;28;20517;-76
2022/09/09 11:19:35;;;;;;;9.63;2.45;;;;;;;16.51;98.91;100631.63;5109500;28;20022;-76
2022/09/09 11:22:25;;;;;;;8.63;2.72;;;;;;;16.48;98.76;100647.88;5108959;28;20076;-77
2022/09/09 11:24:57;;;;;;;8.40;2.60;;;;;;;16.45;98.61;100633.09;5108504;28;20020;-76
2022/09/09 11:27:37;;;;;;;7.13;2.53;;;;;;;16.41;97.73;100637.06;5105243;28;20022;-76
2022/09/09 11:30:15;;;;;;;9.60;2.83;;;;;;;16.33;98.09;100634.31;5107079;28;20030;-77
2022/09/09 11:33:09;;;;;;;6.50;2.20;;;;;;;16.35;98.57;100629.69;5110516;28;20024;-77
2022/09/09 11:35:38;;;;;;;9.18;2.40;;;;;;;16.32;99.01;100626.50;5103515;28;20487;-77
2022/09/09 11:38:27;;;;;;;7.38;2.72;;;;;;;16.30;98.24;100635.47;5110766;28;20061;-77
2022/09/09 11:41:06;;;;;;;9.55;3.05;;;;;;;16.31;98.82;100628.34;5090584;28;20108;-77